createdAt,value
2018-06-24T00:01:42.223Z,65.50
2018-06-24T00:06:36.915Z,64.90
2018-06-24T00:09:06.409Z,64.90
2018-06-24T00:11:33.660Z,64.80
2018-06-24T00:14:00.971Z,64.90
2018-06-24T00:16:28.251Z,64.10
2018-06-24T00:18:55.656Z,65.00
2018-06-24T00:21:22.932Z,64.00
2018-06-24T00:23:50.332Z,65.10
2018-06-24T00:26:17.879Z,65.30
2018-06-24T00:28:45.170Z,65.40
2018-06-24T00:31:12.418Z,65.40
2018-06-24T00:33:39.690Z,64.30
2018-06-24T00:36:06.988Z,65.30
2018-06-24T00:38:35.387Z,66.00
2018-06-24T00:41:02.695Z,65.30
2018-06-24T00:43:30.647Z,65.30
2018-06-24T00:45:58.079Z,65.60
2018-06-24T00:48:25.402Z,65.00
2018-06-24T00:50:52.808Z,65.40
2018-06-24T00:53:20.072Z,66.60
2018-06-24T00:55:47.383Z,66.80
2018-06-24T00:58:14.803Z,67.10
2018-06-24T01:00:42.131Z,67.20
2018-06-24T01:03:09.391Z,67.20
2018-06-24T01:05:36.711Z,67.10
2018-06-24T01:08:04.092Z,67.20
2018-06-24T01:10:31.372Z,65.90
2018-06-24T01:12:58.622Z,67.40
2018-06-24T01:15:25.915Z,67.40
2018-06-24T01:20:20.479Z,67.30
2018-06-24T01:22:47.739Z,67.30
2018-06-24T01:25:14.996Z,67.40
2018-06-24T01:27:42.234Z,67.30
2018-06-24T01:32:37.112Z,67.30
2018-06-24T01:35:04.397Z,67.30
2018-06-24T01:37:31.644Z,67.20
2018-06-24T01:39:58.936Z,65.90
2018-06-24T01:42:26.178Z,67.20
2018-06-24T01:44:53.456Z,67.20
2018-06-24T01:47:20.787Z,67.20
2018-06-24T01:49:48.172Z,65.80
2018-06-24T01:52:15.478Z,67.30
2018-06-24T01:54:42.779Z,67.20
2018-06-24T01:57:10.932Z,67.30
2018-06-24T01:59:38.166Z,67.50
2018-06-24T02:02:05.425Z,67.60
2018-06-24T02:04:32.671Z,67.40
2018-06-24T02:07:00.188Z,67.70
2018-06-24T02:09:27.525Z,67.70
2018-06-24T02:11:54.812Z,67.80
2018-06-24T02:14:22.439Z,67.50
2018-06-24T02:16:49.691Z,66.80
2018-06-24T02:21:44.188Z,67.70
2018-06-24T02:24:11.432Z,67.70
2018-06-24T02:26:38.688Z,68.30
2018-06-24T02:29:06.519Z,66.30
2018-06-24T02:31:33.981Z,67.50
2018-06-24T02:34:01.896Z,67.30
2018-06-24T02:36:29.164Z,66.40
2018-06-24T02:38:56.458Z,66.00
2018-06-24T02:41:23.720Z,66.20
2018-06-24T02:43:51.019Z,67.20
2018-06-24T02:46:18.299Z,67.80
2018-06-24T02:51:13.159Z,67.80
2018-06-24T02:53:40.551Z,67.90
2018-06-24T02:56:07.760Z,66.80
2018-06-24T02:58:35.065Z,68.10
2018-06-24T03:01:02.337Z,68.80
2018-06-24T03:03:29.582Z,66.80
2018-06-24T03:05:57.263Z,66.30
2018-06-24T03:08:24.503Z,67.90
2018-06-24T03:10:51.748Z,67.80
2018-06-24T03:13:19.043Z,67.70
2018-06-24T03:15:46.271Z,66.30
2018-06-24T03:18:13.684Z,67.60
2018-06-24T03:21:01.326Z,67.90
2018-06-24T03:25:55.903Z,68.00
2018-06-24T03:28:23.168Z,68.10
2018-06-24T03:30:50.407Z,67.60
2018-06-24T03:33:17.623Z,67.70
2018-06-24T03:35:44.935Z,68.00
2018-06-24T03:38:12.226Z,67.50
2018-06-24T03:40:39.502Z,67.40
2018-06-24T03:43:06.735Z,68.20
2018-06-24T03:45:34.031Z,67.10
2018-06-24T03:48:01.268Z,65.40
2018-06-24T03:50:28.536Z,67.90
2018-06-24T03:52:55.819Z,67.20
2018-06-24T03:55:23.121Z,67.10
2018-06-24T03:57:50.374Z,67.00
2018-06-24T04:00:17.751Z,67.90
2018-06-24T04:02:44.992Z,65.90
2018-06-24T04:05:12.340Z,67.60
2018-06-24T04:07:39.616Z,67.30
2018-06-24T04:10:06.945Z,66.40
2018-06-24T04:12:34.211Z,67.60
2018-06-24T04:15:01.500Z,67.70
2018-06-24T04:17:28.839Z,67.60
2018-06-24T04:22:23.645Z,67.40
2018-06-24T04:24:51.001Z,67.20
2018-06-24T04:27:18.267Z,66.80
2018-06-24T04:29:45.496Z,66.70
2018-06-24T04:32:12.728Z,66.80
2018-06-24T04:37:08.519Z,66.20
2018-06-24T04:39:35.768Z,66.00
2018-06-24T04:42:03.064Z,65.60
2018-06-24T04:44:30.315Z,65.20
2018-06-24T04:46:57.566Z,65.00
2018-06-24T04:49:24.839Z,64.50
2018-06-24T04:51:52.093Z,64.60
2018-06-24T04:54:19.295Z,64.50
2018-06-24T04:56:46.878Z,63.90
2018-06-24T04:59:14.223Z,63.50
2018-06-24T05:01:41.493Z,62.30
2018-06-24T05:04:08.743Z,63.10
2018-06-24T05:06:36.111Z,63.20
2018-06-24T05:09:06.380Z,62.80
2018-06-24T05:11:33.709Z,62.50
2018-06-24T05:14:01.210Z,62.10
2018-06-24T05:16:28.552Z,61.30
2018-06-24T05:18:55.888Z,62.60
2018-06-24T05:23:50.721Z,62.30
2018-06-24T05:26:18.267Z,62.80
2018-06-24T05:28:45.563Z,61.70
2018-06-24T05:31:12.796Z,61.50
2018-06-24T05:33:40.083Z,60.70
2018-06-24T05:36:07.371Z,60.60
2018-06-24T05:38:34.623Z,60.50
2018-06-24T05:43:42.849Z,60.40
2018-06-24T05:46:10.994Z,60.40
2018-06-24T05:49:10.368Z,60.40
2018-06-24T05:51:37.848Z,59.40
2018-06-24T05:56:32.401Z,59.30
2018-06-24T05:59:01.486Z,59.30
2018-06-24T06:01:28.806Z,58.70
2018-06-24T06:03:56.391Z,58.40
2018-06-24T06:06:23.724Z,58.60
2018-06-24T06:08:53.356Z,57.90
2018-06-24T06:11:20.676Z,56.60
2018-06-24T06:13:47.910Z,57.30
2018-06-24T06:16:15.227Z,57.20
2018-06-24T06:18:42.476Z,56.30
2018-06-24T06:21:09.734Z,57.10
2018-06-24T06:23:36.995Z,57.00
2018-06-24T06:26:04.300Z,57.70
2018-06-24T06:28:31.582Z,56.80
2018-06-24T06:30:58.879Z,57.00
2018-06-24T06:33:27.176Z,56.80
2018-06-24T06:35:55.084Z,57.30
2018-06-24T06:38:22.829Z,57.10
2018-06-24T06:40:50.192Z,56.50
2018-06-24T06:43:23.791Z,56.20
2018-06-24T06:45:51.343Z,56.20
2018-06-24T06:48:18.872Z,54.90
2018-06-24T06:58:26.127Z,54.00
2018-06-24T07:00:53.568Z,52.90
2018-06-24T07:03:20.820Z,52.20
2018-06-24T07:05:48.156Z,50.80
2018-06-24T07:08:15.439Z,51.10
2018-06-24T07:13:31.512Z,50.60
2018-06-24T07:15:58.787Z,50.50
2018-06-24T07:18:26.132Z,50.60
2018-06-24T07:20:53.920Z,50.40
2018-06-24T07:23:21.374Z,49.50
2018-06-24T07:26:11.440Z,49.00
2018-06-24T07:28:41.624Z,48.00
2018-06-24T07:31:08.944Z,45.90
2018-06-24T07:33:36.348Z,46.10
2018-06-24T07:36:04.504Z,46.30
2018-06-24T07:38:32.056Z,45.50
2018-06-24T07:40:59.329Z,44.70
2018-06-24T07:43:38.855Z,46.20
2018-06-24T07:46:06.187Z,46.30
2018-06-24T07:48:33.512Z,44.00
2018-06-24T07:51:00.813Z,43.90
2018-06-24T07:56:15.152Z,46.00
2018-06-24T07:58:42.678Z,45.40
2018-06-24T08:01:10.755Z,42.50
2018-06-24T08:03:43.428Z,39.20
2018-06-24T08:06:10.703Z,38.70
2018-06-24T08:08:38.025Z,37.60
2018-06-24T08:11:05.326Z,37.00
2018-06-24T08:13:32.564Z,37.70
2018-06-24T08:15:59.895Z,38.30
2018-06-24T08:18:27.160Z,39.80
2018-06-24T08:21:01.682Z,39.60
2018-06-24T08:23:28.991Z,37.20
2018-06-24T08:25:56.229Z,36.80
2018-06-24T08:28:23.823Z,34.90
2018-06-24T08:30:55.540Z,35.60
2018-06-24T08:33:22.895Z,32.90
2018-06-24T08:35:50.363Z,34.60
2018-06-24T08:38:17.743Z,33.40
2018-06-24T08:40:45.444Z,30.80
2018-06-24T08:43:12.671Z,30.40
2018-06-24T08:45:39.956Z,32.90
2018-06-24T08:48:07.280Z,32.10
2018-06-24T08:50:34.580Z,29.60
2018-06-24T08:53:01.836Z,30.60
2018-06-24T08:55:31.223Z,29.50
2018-06-24T08:57:58.591Z,28.50
2018-06-24T09:00:25.831Z,29.30
2018-06-24T09:02:53.071Z,28.90
2018-06-24T09:07:47.752Z,28.30
2018-06-24T09:10:17.215Z,30.50
2018-06-24T09:12:44.462Z,32.10
2018-06-24T09:15:12.313Z,32.50
2018-06-24T09:17:40.992Z,33.70
2018-06-24T09:20:09.873Z,35.00
2018-06-24T09:22:37.639Z,35.90
2018-06-24T09:25:05.319Z,34.80
2018-06-24T09:27:32.874Z,34.10
2018-06-24T09:30:00.175Z,35.00
2018-06-24T09:32:27.614Z,35.20
2018-06-24T09:34:55.131Z,35.00
2018-06-24T09:37:23.344Z,35.30
2018-06-24T09:39:50.635Z,35.70
2018-06-24T09:42:18.010Z,34.00
2018-06-24T09:49:39.891Z,37.80
2018-06-24T09:52:07.231Z,38.50
2018-06-24T09:54:34.584Z,37.70
2018-06-24T09:57:02.419Z,38.70
2018-06-24T09:59:29.653Z,37.10
2018-06-24T10:02:00.966Z,38.10
2018-06-24T10:06:55.475Z,36.60
2018-06-24T10:17:36.436Z,33.50
2018-06-24T10:20:03.824Z,35.90
2018-06-24T10:23:01.837Z,36.50
2018-06-24T10:25:29.147Z,34.30
2018-06-24T10:27:56.440Z,36.10
2018-06-24T10:30:40.976Z,37.40
2018-06-24T10:33:12.175Z,37.10
2018-06-24T10:35:40.177Z,35.20
2018-06-24T10:40:35.452Z,36.80
2018-06-24T10:43:02.719Z,34.60
2018-06-24T10:45:29.979Z,33.10
2018-06-24T10:47:59.744Z,31.50
2018-06-24T10:50:27.223Z,32.00
2018-06-24T10:52:54.515Z,31.10
2018-06-24T10:55:22.167Z,32.20
2018-06-24T10:58:01.283Z,31.00
2018-06-24T11:00:30.787Z,32.00
2018-06-24T11:02:58.067Z,30.90
2018-06-24T11:05:25.304Z,31.90
2018-06-24T11:07:56.447Z,33.00
2018-06-24T11:10:31.234Z,33.10
2018-06-24T11:16:48.703Z,33.10
2018-06-24T11:19:16.039Z,34.60
2018-06-24T11:21:44.246Z,34.90
2018-06-24T11:24:11.546Z,34.30
2018-06-24T11:26:38.839Z,33.00
2018-06-24T11:29:06.107Z,32.50
2018-06-24T11:31:40.068Z,33.00
2018-06-24T11:34:07.382Z,33.70
2018-06-24T11:36:34.594Z,33.40
2018-06-24T11:39:01.900Z,31.60
2018-06-24T11:41:29.134Z,32.70
2018-06-24T11:43:59.076Z,32.30
2018-06-24T11:46:26.425Z,33.20
2018-06-24T11:48:53.709Z,33.90
2018-06-24T11:51:20.976Z,35.20
2018-06-24T11:53:48.223Z,36.80
2018-06-24T11:56:16.304Z,37.00
2018-06-24T11:58:43.572Z,37.40
2018-06-24T12:01:10.811Z,37.50
2018-06-24T12:03:38.091Z,39.50
2018-06-24T12:06:05.392Z,39.60
2018-06-24T12:08:32.655Z,40.00
2018-06-24T12:10:59.931Z,39.40
2018-06-24T12:13:27.216Z,40.60
2018-06-24T12:15:54.453Z,40.00
2018-06-24T12:18:21.744Z,41.00
2018-06-24T12:20:49.097Z,39.20
2018-06-24T12:23:16.360Z,38.60
2018-06-24T12:25:43.665Z,38.20
2018-06-24T12:28:10.956Z,38.70
2018-06-24T12:30:38.205Z,39.70
2018-06-24T12:33:11.810Z,37.60
2018-06-24T12:38:06.359Z,38.40
2018-06-24T12:40:33.910Z,38.50
2018-06-24T12:43:02.831Z,38.30
2018-06-24T12:47:57.583Z,39.00
2018-06-24T12:50:24.853Z,38.10
2018-06-24T12:52:52.097Z,39.90
2018-06-24T12:57:46.871Z,37.60
2018-06-24T13:00:26.909Z,37.80
2018-06-24T13:06:08.951Z,35.70
2018-06-24T13:08:36.215Z,36.00
2018-06-24T13:14:10.941Z,34.00
2018-06-24T13:16:38.158Z,33.50
2018-06-24T13:19:05.451Z,35.10
2018-06-24T13:21:37.146Z,33.10
2018-06-24T13:24:27.580Z,31.10
2018-06-24T13:27:07.453Z,33.20
2018-06-24T13:29:42.439Z,33.20
2018-06-24T13:32:09.845Z,32.70
2018-06-24T13:34:37.056Z,34.20
2018-06-24T13:37:04.391Z,33.70
2018-06-24T13:41:58.930Z,35.40
2018-06-24T13:44:28.899Z,34.20
2018-06-24T13:46:56.179Z,36.00
2018-06-24T13:49:23.448Z,35.20
2018-06-24T13:51:50.751Z,32.80
2018-06-24T13:56:45.574Z,32.70
2018-06-24T13:59:12.908Z,34.50
2018-06-24T14:01:40.207Z,33.40
2018-06-24T14:04:09.511Z,33.00
2018-06-24T14:06:36.875Z,34.00
2018-06-24T14:09:10.592Z,35.40
2018-06-24T14:11:38.176Z,34.40
2018-06-24T14:14:10.389Z,33.60
2018-06-24T14:16:37.864Z,35.30
2018-06-24T14:19:05.243Z,35.40
2018-06-24T14:21:32.617Z,34.20
2018-06-24T14:24:00.625Z,35.60
2018-06-24T14:26:28.027Z,35.00
2018-06-24T14:28:55.356Z,34.90
2018-06-24T14:31:22.648Z,34.60
2018-06-24T14:33:49.927Z,34.60
2018-06-24T14:38:44.636Z,35.40
2018-06-24T14:41:11.982Z,33.90
2018-06-24T14:43:41.709Z,33.20
2018-06-24T14:46:08.995Z,33.60
2018-06-24T14:48:36.703Z,32.90
2018-06-24T14:51:04.053Z,32.50
2018-06-24T14:53:31.543Z,32.30
2018-06-24T14:55:58.852Z,31.80
2018-06-24T14:58:49.683Z,33.20
2018-06-24T15:01:16.975Z,34.40
2018-06-24T15:03:45.121Z,34.30
2018-06-24T15:06:12.405Z,34.30
2018-06-24T15:08:39.686Z,32.70
2018-06-24T15:11:07.015Z,32.70
2018-06-24T15:13:34.291Z,32.40
2018-06-24T15:16:01.555Z,34.40
2018-06-24T15:18:42.037Z,33.10
2018-06-24T15:21:09.832Z,33.10
2018-06-24T15:23:37.475Z,33.50
2018-06-24T15:26:20.564Z,34.60
2018-06-24T15:28:48.271Z,34.80
2018-06-24T15:31:15.985Z,35.50
2018-06-24T15:34:15.274Z,35.70
2018-06-24T15:36:44.263Z,35.40
2018-06-24T15:41:58.699Z,34.50
2018-06-24T15:44:25.963Z,35.10
2018-06-24T15:46:53.227Z,35.90
2018-06-24T15:49:20.527Z,35.10
2018-06-24T15:54:19.855Z,36.30
2018-06-24T15:56:47.280Z,35.70
2018-06-24T15:59:14.887Z,35.50
2018-06-24T16:01:42.183Z,35.70
2018-06-24T16:06:39.996Z,35.90
2018-06-24T16:09:36.010Z,37.00
2018-06-24T16:12:11.600Z,37.40
2018-06-24T16:14:38.964Z,37.90
2018-06-24T16:19:34.456Z,38.20
2018-06-24T16:22:09.335Z,38.80
2018-06-24T16:24:42.578Z,39.60
2018-06-24T16:27:09.872Z,39.30
2018-06-24T16:29:39.386Z,39.60
2018-06-24T16:32:06.768Z,39.30
2018-06-24T16:34:34.093Z,39.30
2018-06-24T16:39:38.949Z,40.00
2018-06-24T16:44:40.961Z,40.00
2018-06-24T16:49:42.078Z,40.40
2018-06-24T16:52:09.382Z,40.90
2018-06-24T16:54:36.734Z,41.30
2018-06-24T16:57:04.816Z,40.30
2018-06-24T16:59:34.996Z,41.60
2018-06-24T17:02:03.129Z,40.70
2018-06-24T17:04:40.631Z,40.90
2018-06-24T17:07:08.048Z,41.50
2018-06-24T17:09:35.331Z,40.70
2018-06-24T17:12:02.648Z,41.20
2018-06-24T17:14:32.196Z,41.00
2018-06-24T17:19:52.685Z,41.50
2018-06-24T17:22:30.089Z,41.30
2018-06-24T17:24:57.516Z,41.60
2018-06-24T17:27:24.800Z,41.90
2018-06-24T17:29:52.594Z,41.60
2018-06-24T17:34:52.543Z,40.90
2018-06-24T17:37:19.881Z,41.30
2018-06-24T17:39:47.227Z,41.40
2018-06-24T17:42:14.507Z,41.50
2018-06-24T17:44:42.303Z,41.50
2018-06-24T17:47:11.275Z,40.60
2018-06-24T17:49:38.616Z,40.00
2018-06-24T17:52:05.910Z,40.10
2018-06-24T17:54:33.206Z,40.60
2018-06-24T17:57:01.555Z,39.50
2018-06-24T17:59:28.883Z,40.20
2018-06-24T18:01:56.152Z,39.20
2018-06-24T18:04:23.576Z,39.40
2018-06-24T18:06:52.541Z,39.20
2018-06-24T18:09:31.097Z,39.20
2018-06-24T18:11:58.537Z,39.20
2018-06-24T18:16:53.515Z,39.10
2018-06-24T18:19:20.798Z,38.70
2018-06-24T18:21:48.339Z,38.50
2018-06-24T18:24:15.715Z,38.80
2018-06-24T18:26:43.049Z,38.50
2018-06-24T18:29:11.086Z,38.10
2018-06-24T18:31:38.413Z,38.50
2018-06-24T18:36:58.217Z,38.50
2018-06-24T18:41:52.808Z,38.50
2018-06-24T18:44:50.587Z,39.10
2018-06-24T18:47:22.437Z,39.10
2018-06-24T18:49:49.818Z,38.80
2018-06-24T18:52:17.103Z,39.90
2018-06-24T18:54:51.435Z,40.50
2018-06-24T18:57:18.749Z,40.80
2018-06-24T18:59:49.689Z,39.20
2018-06-24T19:02:17.143Z,41.20
2018-06-24T19:04:44.427Z,41.30
2018-06-24T19:07:15.421Z,41.40
2018-06-24T19:09:42.680Z,42.10
2018-06-24T19:12:10.743Z,41.50
2018-06-24T19:14:38.015Z,42.40
2018-06-24T19:17:12.312Z,42.00
2018-06-24T19:19:42.643Z,43.20
2018-06-24T19:22:10.035Z,42.60
2018-06-24T19:24:37.440Z,43.80
2018-06-24T19:27:04.920Z,44.70
2018-06-24T19:29:32.330Z,44.00
2018-06-24T20:14:13.099Z,44.70
2018-06-24T20:16:41.199Z,47.30
2018-06-24T20:21:36.783Z,47.30
2018-06-24T20:24:04.130Z,47.50
2018-06-24T20:26:31.406Z,46.40
2018-06-24T20:28:58.738Z,46.60
2018-06-24T20:31:26.016Z,47.30
2018-06-24T20:41:17.424Z,50.30
2018-06-24T20:43:44.700Z,49.60
2018-06-24T20:48:39.263Z,50.60
2018-06-24T20:51:06.992Z,50.80
2018-06-24T20:53:34.320Z,50.60
2018-06-24T20:56:01.689Z,50.50
2018-06-24T20:58:28.963Z,50.60
2018-06-24T21:00:56.379Z,49.70
2018-06-24T21:03:23.651Z,50.00
2018-06-24T21:05:50.956Z,50.30
2018-06-24T21:08:18.234Z,50.60
2018-06-24T21:10:45.528Z,51.00
2018-06-24T21:13:12.787Z,50.80
2018-06-24T21:15:40.108Z,51.20
2018-06-24T21:18:07.388Z,50.10
2018-06-24T21:20:43.048Z,51.30
2018-06-24T21:23:10.411Z,51.40
2018-06-24T21:25:38.106Z,51.60
2018-06-24T21:28:05.379Z,51.40
2018-06-24T21:30:32.687Z,50.70
2018-06-24T21:32:59.929Z,50.70
2018-06-24T21:35:27.240Z,49.10
2018-06-24T21:37:54.471Z,49.20
2018-06-24T21:42:58.176Z,48.50
2018-06-24T21:45:25.509Z,48.00
2018-06-24T21:47:52.786Z,47.80
2018-06-24T21:50:20.047Z,46.80
2018-06-24T21:52:47.379Z,48.00
2018-06-24T21:58:12.272Z,47.70
2018-06-24T22:00:42.565Z,49.20
2018-06-24T22:08:04.827Z,48.60
2018-06-24T22:10:32.118Z,49.60
2018-06-24T22:16:16.882Z,50.00
2018-06-24T22:18:44.680Z,51.40
2018-06-24T22:21:31.792Z,50.30
2018-06-24T22:23:59.166Z,50.60
2018-06-24T22:26:26.608Z,50.80
2018-06-24T22:36:15.828Z,51.20
2018-06-24T22:39:06.548Z,51.60
2018-06-24T22:41:33.860Z,51.70
2018-06-24T22:44:01.298Z,51.70
2018-06-24T22:49:30.858Z,51.30
2018-06-24T22:51:58.154Z,51.90
2018-06-24T22:54:25.439Z,50.90
2018-06-24T22:56:52.772Z,52.30
2018-06-24T23:02:12.083Z,52.40
2018-06-24T23:09:58.942Z,51.90
2018-06-24T23:12:42.730Z,51.80
2018-06-24T23:15:10.712Z,51.40
2018-06-24T23:17:38.480Z,51.30
2018-06-24T23:20:13.541Z,51.30
2018-06-24T23:22:40.779Z,52.50
2018-06-24T23:25:14.517Z,50.60
2018-06-24T23:28:37.122Z,51.50
2018-06-24T23:31:04.733Z,51.70
2018-06-24T23:33:32.379Z,50.80
2018-06-24T23:35:59.764Z,52.00
2018-06-24T23:38:27.055Z,52.00
2018-06-24T23:40:54.339Z,50.90
2018-06-24T23:43:25.433Z,52.10
2018-06-24T23:45:52.832Z,52.10
2018-06-24T23:48:21.865Z,51.40
2018-06-24T23:50:49.267Z,52.10
2018-06-24T23:53:16.555Z,51.40
2018-06-24T23:55:43.919Z,52.40
2018-06-24T23:58:13.351Z,52.20
